Airport View

Enter AWOS ICAO identifier for current METAR.

ex. KFNL

KBVI 251155Z AUTO 13003KT 1SM BR VV007 14/12 A3010 RMK AO2 T01390124

25 Sep 2020 12:01

Frequency: 118.35

Phone: 724-843-1024

Other Area AWOS: KPJC - KUCP - KPIT - KBTP

TAF KBVI 251120Z 2512/2612 14004KT P6SM SCT250 FM260600 VRB02KT P6SM SCT250